createdAt,value
2019-01-04T00:01:39.553Z,78.21
2019-01-04T00:04:20.475Z,78.41
2019-01-04T00:06:49.816Z,78.36
2019-01-04T00:09:19.132Z,78.35
2019-01-04T00:11:48.471Z,78.44
2019-01-04T00:14:17.807Z,78.16
2019-01-04T00:16:47.149Z,78.01
2019-01-04T00:19:16.535Z,78.21
2019-01-04T00:21:45.848Z,77.96
2019-01-04T00:24:15.171Z,78.09
2019-01-04T00:26:44.464Z,78.35
2019-01-04T00:29:13.849Z,78.57
2019-01-04T00:31:43.271Z,78.40
2019-01-04T00:34:12.568Z,78.04
2019-01-04T00:36:41.904Z,78.43
2019-01-04T00:39:11.258Z,78.01
2019-01-04T00:41:40.570Z,77.72
2019-01-04T00:44:09.914Z,77.90
2019-01-04T00:46:39.687Z,77.56
2019-01-04T00:49:08.988Z,77.46
2019-01-04T00:51:38.293Z,77.76
2019-01-04T00:54:07.622Z,77.86
2019-01-04T00:57:02.750Z,77.81
2019-01-04T01:00:05.416Z,76.48
2019-01-04T01:03:43.205Z,77.35
2019-01-04T01:07:01.506Z,76.93
2019-01-04T01:10:06.372Z,77.08
2019-01-04T01:13:04.106Z,77.64
2019-01-04T01:16:09.889Z,78.46
2019-01-04T01:19:29.282Z,77.82
2019-01-04T01:22:54.984Z,78.83
2019-01-04T01:26:17.355Z,79.53
2019-01-04T01:29:05.862Z,80.06
2019-01-04T01:32:01.058Z,79.71
2019-01-04T01:35:13.602Z,80.11
2019-01-04T01:38:23.096Z,79.08
2019-01-04T01:41:47.839Z,78.49
2019-01-04T01:44:45.530Z,77.90
2019-01-04T01:47:38.874Z,78.09
2019-01-04T01:50:51.085Z,77.34
2019-01-04T01:53:20.184Z,77.85
2019-01-04T01:55:49.522Z,76.56
2019-01-04T01:58:18.878Z,76.56
2019-01-04T02:00:48.245Z,76.24
2019-01-04T02:03:17.524Z,76.38
2019-01-04T02:05:46.864Z,76.34
2019-01-04T02:08:16.198Z,75.51
2019-01-04T02:10:45.550Z,75.91
2019-01-04T02:13:14.915Z,75.89
2019-01-04T02:15:44.274Z,75.89
2019-01-04T02:18:13.659Z,76.60
2019-01-04T02:20:42.963Z,76.64
2019-01-04T02:23:12.276Z,76.01
2019-01-04T02:25:41.623Z,76.93
2019-01-04T02:28:10.958Z,77.01
2019-01-04T02:30:40.301Z,76.58
2019-01-04T02:33:09.642Z,77.07
2019-01-04T02:35:38.962Z,77.71
2019-01-04T02:38:08.289Z,77.24
2019-01-04T02:40:37.637Z,78.08
2019-01-04T02:43:07.005Z,78.25
2019-01-04T02:45:36.329Z,78.53
2019-01-04T02:48:05.665Z,79.18
2019-01-04T02:50:35.052Z,79.48
2019-01-04T02:53:04.381Z,80.20
2019-01-04T02:55:33.660Z,80.83
2019-01-04T02:58:03.038Z,81.16
2019-01-04T03:00:32.396Z,81.93
2019-01-04T03:03:01.750Z,83.04
2019-01-04T03:05:31.062Z,84.03
2019-01-04T03:08:00.366Z,84.47
2019-01-04T03:10:29.703Z,85.77
2019-01-04T03:12:59.008Z,86.77
2019-01-04T03:15:28.323Z,86.51
2019-01-04T03:17:57.653Z,86.38
2019-01-04T03:20:27.009Z,86.50
2019-01-04T03:22:56.312Z,86.64
2019-01-04T03:25:25.625Z,86.46
2019-01-04T03:27:54.964Z,86.76
2019-01-04T03:30:24.423Z,86.27
2019-01-04T03:32:53.746Z,85.97
2019-01-04T03:35:23.108Z,86.27
2019-01-04T03:37:52.415Z,85.80
2019-01-04T03:40:21.783Z,85.67
2019-01-04T03:42:51.055Z,85.64
2019-01-04T03:45:20.494Z,85.36
2019-01-04T03:47:49.840Z,85.99
2019-01-04T03:50:19.161Z,85.97
2019-01-04T03:52:48.515Z,85.52
2019-01-04T03:55:17.875Z,85.44
2019-01-04T03:57:47.259Z,85.60
2019-01-04T04:00:17.028Z,84.99
2019-01-04T04:02:46.376Z,85.13
2019-01-04T04:05:15.704Z,85.28
2019-01-04T04:07:45.047Z,84.85
2019-01-04T04:10:14.381Z,85.12
2019-01-04T04:12:43.718Z,85.31
2019-01-04T04:15:13.045Z,85.42
2019-01-04T04:17:42.343Z,85.31
2019-01-04T04:20:11.679Z,85.02
2019-01-04T04:22:41.053Z,84.90
2019-01-04T04:25:10.369Z,84.82
2019-01-04T04:27:39.684Z,84.93
2019-01-04T04:30:09.277Z,85.28
2019-01-04T04:32:38.623Z,84.87
2019-01-04T04:35:07.941Z,85.01
2019-01-04T04:37:37.288Z,84.87
2019-01-04T04:40:06.659Z,85.08
2019-01-04T04:42:35.983Z,85.24
2019-01-04T04:45:05.811Z,84.64
2019-01-04T04:47:35.140Z,84.90
2019-01-04T04:50:04.665Z,84.82
2019-01-04T04:52:34.009Z,85.01
2019-01-04T04:55:03.369Z,85.19
2019-01-04T04:57:32.710Z,85.02
2019-01-04T05:00:02.063Z,85.04
2019-01-04T05:02:31.440Z,85.16
2019-01-04T05:05:01.128Z,84.87
2019-01-04T05:07:30.433Z,85.14
2019-01-04T05:09:59.822Z,85.32
2019-01-04T05:12:29.186Z,85.32
2019-01-04T05:14:58.551Z,85.09
2019-01-04T05:17:27.888Z,84.69
2019-01-04T05:19:57.238Z,85.12
2019-01-04T05:22:26.592Z,84.89
2019-01-04T05:24:55.912Z,85.31
2019-01-04T05:27:25.274Z,84.60
2019-01-04T05:29:54.606Z,84.47
2019-01-04T05:32:23.991Z,84.41
2019-01-04T05:34:53.310Z,84.72
2019-01-04T05:37:22.691Z,84.98
2019-01-04T05:39:52.028Z,85.70
2019-01-04T05:42:21.383Z,84.99
2019-01-04T05:44:50.711Z,84.55
2019-01-04T05:47:20.007Z,85.16
2019-01-04T05:49:49.467Z,85.26
2019-01-04T05:52:18.748Z,85.89
2019-01-04T05:54:48.085Z,85.93
2019-01-04T05:57:17.435Z,86.18
2019-01-04T05:59:46.788Z,85.92
2019-01-04T06:02:16.117Z,86.02
2019-01-04T06:04:45.445Z,86.31
2019-01-04T06:07:14.799Z,86.65
2019-01-04T06:09:44.165Z,86.60
2019-01-04T06:12:13.526Z,86.42
2019-01-04T06:14:42.878Z,85.98
2019-01-04T06:17:12.270Z,86.27
2019-01-04T06:19:43.876Z,86.48
2019-01-04T06:22:13.219Z,86.84
2019-01-04T06:24:42.558Z,86.76
2019-01-04T06:27:11.912Z,86.59
2019-01-04T06:29:41.285Z,86.08
2019-01-04T06:32:10.737Z,86.64
2019-01-04T06:34:40.100Z,86.73
2019-01-04T06:37:09.461Z,87.11
2019-01-04T06:39:38.779Z,86.03
2019-01-04T06:42:08.128Z,85.52
2019-01-04T06:44:37.507Z,85.39
2019-01-04T06:47:20.648Z,85.50
2019-01-04T06:49:51.152Z,85.19
2019-01-04T06:52:21.999Z,85.28
2019-01-04T06:55:37.462Z,84.87
2019-01-04T06:58:06.818Z,84.92
2019-01-04T07:00:36.151Z,85.46
2019-01-04T07:03:05.530Z,85.66
2019-01-04T07:05:34.887Z,85.75
2019-01-04T07:08:04.227Z,85.81
2019-01-04T07:10:33.554Z,85.37
2019-01-04T07:13:02.964Z,86.09
2019-01-04T07:15:32.329Z,85.50
2019-01-04T07:18:01.664Z,85.14
2019-01-04T07:20:31.023Z,84.77
2019-01-04T07:23:00.338Z,85.00
2019-01-04T07:25:29.637Z,85.06
2019-01-04T07:27:58.953Z,85.11
2019-01-04T07:30:28.348Z,85.15
2019-01-04T07:32:57.684Z,84.77
2019-01-04T07:35:27.014Z,85.16
2019-01-04T07:37:56.369Z,85.18
2019-01-04T07:40:25.685Z,84.44
2019-01-04T07:42:55.034Z,83.86
2019-01-04T07:45:24.464Z,83.76
2019-01-04T07:47:53.824Z,83.90
2019-01-04T07:50:23.167Z,83.26
2019-01-04T07:52:52.562Z,83.23
2019-01-04T07:55:21.994Z,82.81
2019-01-04T07:57:51.490Z,83.04
2019-01-04T08:00:21.031Z,82.87
2019-01-04T08:02:52.030Z,82.83
2019-01-04T08:05:26.140Z,82.37
2019-01-04T08:07:55.584Z,82.02
2019-01-04T08:10:25.041Z,81.51
2019-01-04T08:12:55.051Z,80.87
2019-01-04T08:15:24.386Z,81.42
2019-01-04T08:17:53.723Z,80.93
2019-01-04T08:20:24.229Z,81.71
2019-01-04T08:22:54.733Z,81.60
2019-01-04T08:25:24.070Z,82.23
2019-01-04T08:27:53.477Z,81.51
2019-01-04T08:30:22.857Z,81.26
2019-01-04T08:32:52.194Z,80.53
2019-01-04T08:35:21.496Z,80.76
2019-01-04T08:37:50.873Z,80.35
2019-01-04T08:40:20.250Z,80.70
2019-01-04T08:42:49.621Z,81.15
2019-01-04T08:45:18.967Z,80.67
2019-01-04T08:47:48.272Z,80.54
2019-01-04T08:50:17.659Z,79.95
2019-01-04T08:52:47.002Z,79.96
2019-01-04T08:55:23.345Z,80.21
2019-01-04T08:57:52.697Z,79.28
2019-01-04T09:00:22.081Z,80.21
2019-01-04T09:02:52.605Z,79.48
2019-01-04T09:05:22.013Z,79.50
2019-01-04T09:07:51.457Z,79.60
2019-01-04T09:10:20.784Z,78.69
2019-01-04T09:12:50.173Z,78.05
2019-01-04T09:15:19.504Z,77.66
2019-01-04T09:17:48.884Z,75.70
2019-01-04T09:20:18.278Z,76.80
2019-01-04T09:22:47.631Z,75.93
2019-01-04T09:25:17.004Z,75.36
2019-01-04T09:27:46.346Z,75.23
2019-01-04T09:30:16.223Z,75.09
2019-01-04T09:32:45.561Z,74.18
2019-01-04T09:35:14.916Z,73.62
2019-01-04T09:37:44.412Z,73.51
2019-01-04T09:40:13.954Z,73.47
2019-01-04T09:42:45.885Z,73.21
2019-01-04T09:45:15.417Z,73.14
2019-01-04T09:47:44.758Z,72.45
2019-01-04T09:50:14.110Z,72.13
2019-01-04T09:52:43.474Z,72.32
2019-01-04T09:55:12.943Z,71.98
2019-01-04T09:57:42.430Z,71.68
2019-01-04T10:00:13.219Z,71.45
2019-01-04T10:02:42.576Z,71.70
2019-01-04T10:05:12.491Z,72.53
2019-01-04T10:07:41.814Z,72.72
2019-01-04T10:10:12.598Z,73.45
2019-01-04T10:12:42.081Z,73.34
2019-01-04T10:15:16.515Z,73.66
2019-01-04T10:17:45.863Z,73.92
2019-01-04T10:20:15.221Z,73.76
2019-01-04T10:22:44.555Z,73.59
2019-01-04T10:25:14.600Z,73.49
2019-01-04T10:27:43.942Z,73.50
2019-01-04T10:30:27.121Z,74.80
2019-01-04T10:32:56.562Z,74.61
2019-01-04T10:35:25.942Z,73.79
2019-01-04T10:37:55.617Z,73.58
2019-01-04T10:40:25.043Z,73.23
2019-01-04T10:42:54.378Z,72.25
2019-01-04T10:45:23.720Z,71.64
2019-01-04T10:47:53.110Z,71.07
2019-01-04T10:50:22.494Z,70.29
2019-01-04T10:52:51.854Z,70.34
2019-01-04T10:55:21.257Z,69.58
2019-01-04T10:57:50.595Z,68.32
2019-01-04T11:00:19.968Z,69.69
2019-01-04T11:02:49.315Z,69.50
2019-01-04T11:05:18.657Z,69.71
2019-01-04T11:07:48.063Z,69.31
2019-01-04T11:10:19.722Z,69.72
2019-01-04T11:12:49.198Z,70.73
2019-01-04T11:15:18.532Z,70.99
2019-01-04T11:17:48.259Z,69.71
2019-01-04T11:20:37.582Z,70.26
2019-01-04T11:23:39.930Z,70.48
2019-01-04T11:26:19.167Z,69.41
2019-01-04T11:29:17.046Z,68.96
2019-01-04T11:31:53.144Z,67.62
2019-01-04T11:34:46.631Z,67.98
2019-01-04T11:38:00.221Z,68.53
2019-01-04T11:40:45.812Z,67.66
2019-01-04T11:43:42.526Z,67.96
2019-01-04T11:46:46.345Z,67.81
2019-01-04T11:49:54.932Z,67.49
2019-01-04T11:52:41.757Z,67.84
2019-01-04T11:55:11.084Z,68.91
2019-01-04T11:57:40.803Z,69.59
2019-01-04T12:00:10.884Z,69.94
2019-01-04T12:02:40.254Z,70.98
2019-01-04T12:05:10.942Z,69.64
2019-01-04T12:07:40.955Z,70.21
2019-01-04T12:10:10.261Z,70.40
2019-01-04T12:12:39.607Z,70.43
2019-01-04T12:15:08.927Z,71.05
2019-01-04T12:17:38.320Z,70.57
2019-01-04T12:20:08.224Z,70.59
2019-01-04T12:22:37.529Z,71.87
2019-01-04T12:25:06.871Z,72.32
2019-01-04T12:27:36.206Z,72.45
2019-01-04T12:30:07.870Z,73.12
2019-01-04T12:32:37.255Z,72.79
2019-01-04T12:35:06.596Z,72.79
2019-01-04T12:37:35.922Z,72.54
2019-01-04T12:40:05.917Z,73.59
2019-01-04T12:42:35.337Z,73.22
2019-01-04T12:45:04.977Z,73.76
2019-01-04T12:47:34.330Z,73.76
2019-01-04T12:50:03.677Z,74.42
2019-01-04T12:52:33.046Z,73.99
2019-01-04T12:55:02.409Z,74.57
2019-01-04T12:57:31.863Z,74.79
2019-01-04T13:00:01.226Z,74.30
2019-01-04T13:02:30.617Z,74.67
2019-01-04T13:04:59.991Z,75.32
2019-01-04T13:07:29.333Z,76.11
2019-01-04T13:10:00.025Z,76.85
2019-01-04T13:12:31.402Z,77.29
2019-01-04T13:15:00.750Z,77.49
2019-01-04T13:17:30.077Z,77.89
2019-01-04T13:19:59.432Z,78.13
2019-01-04T13:22:28.874Z,77.75
2019-01-04T13:24:58.663Z,78.01
2019-01-04T13:27:28.061Z,77.33
2019-01-04T13:29:59.439Z,77.60
2019-01-04T13:32:28.794Z,76.14
2019-01-04T13:34:58.146Z,76.24
2019-01-04T13:37:27.545Z,76.57
2019-01-04T13:39:56.898Z,75.53
2019-01-04T13:42:26.261Z,75.19
2019-01-04T13:44:55.608Z,75.53
2019-01-04T13:47:24.931Z,75.01
2019-01-04T13:49:54.282Z,74.62
2019-01-04T13:52:23.645Z,73.77
2019-01-04T13:54:53.152Z,74.11
2019-01-04T13:57:22.519Z,74.42
2019-01-04T13:59:51.879Z,75.04
2019-01-04T14:02:21.210Z,75.34
2019-01-04T14:04:50.546Z,75.37
2019-01-04T14:07:19.904Z,76.24
2019-01-04T14:09:49.262Z,76.06
2019-01-04T14:12:18.633Z,76.14
2019-01-04T14:14:47.990Z,76.08
2019-01-04T14:20:02.677Z,75.97
2019-01-04T14:22:32.030Z,76.27
2019-01-04T14:25:01.401Z,76.58
2019-01-04T14:27:30.758Z,76.29
2019-01-04T14:30:01.402Z,76.15
2019-01-04T14:32:32.463Z,76.33
2019-01-04T14:35:04.414Z,76.77
2019-01-04T14:37:33.743Z,76.47
2019-01-04T14:40:03.159Z,76.90
2019-01-04T14:42:32.543Z,77.29
2019-01-04T14:45:01.920Z,77.88
2019-01-04T14:47:31.242Z,78.34
2019-01-04T14:50:00.817Z,78.86
2019-01-04T14:52:30.266Z,78.90
2019-01-04T14:54:59.858Z,79.08
2019-01-04T14:57:29.196Z,79.57
2019-01-04T14:59:58.582Z,80.31
2019-01-04T15:02:27.951Z,80.16
2019-01-04T15:04:57.287Z,79.83
2019-01-04T15:07:26.635Z,79.30
2019-01-04T15:09:55.991Z,79.63
2019-01-04T15:12:25.389Z,79.25
2019-01-04T15:14:54.751Z,79.12
2019-01-04T15:17:24.084Z,79.06
2019-01-04T15:19:53.449Z,79.15
2019-01-04T15:22:22.867Z,79.81
2019-01-04T15:24:52.264Z,79.52
2019-01-04T15:27:21.653Z,78.88
2019-01-04T15:29:50.980Z,78.87
2019-01-04T15:32:20.322Z,78.68
2019-01-04T15:34:49.665Z,79.08
2019-01-04T15:37:19.035Z,78.55
2019-01-04T15:39:48.369Z,78.22
2019-01-04T15:42:17.739Z,79.12
2019-01-04T15:44:47.073Z,79.05
2019-01-04T15:47:16.444Z,78.91
2019-01-04T15:49:45.782Z,78.49
2019-01-04T15:52:15.114Z,78.17
2019-01-04T15:54:44.530Z,76.85
2019-01-04T15:57:13.931Z,77.21
2019-01-04T15:59:43.254Z,76.91
2019-01-04T16:02:12.715Z,77.23
2019-01-04T16:04:42.083Z,77.62
2019-01-04T16:07:11.461Z,78.05
2019-01-04T16:09:40.788Z,77.41
2019-01-04T16:12:10.129Z,77.55
2019-01-04T16:14:39.446Z,77.43
2019-01-04T16:17:12.040Z,77.45
2019-01-04T16:19:39.987Z,77.60
2019-01-04T16:22:09.345Z,77.77
2019-01-04T16:24:38.740Z,78.03
2019-01-04T16:27:08.094Z,77.70
2019-01-04T16:29:37.490Z,78.38
2019-01-04T16:32:06.872Z,78.51
2019-01-04T16:34:36.221Z,78.35
2019-01-04T16:37:05.505Z,77.68
2019-01-04T16:39:34.856Z,77.41
2019-01-04T16:42:04.211Z,76.37
2019-01-04T16:44:33.585Z,75.62
2019-01-04T16:47:02.921Z,74.68
2019-01-04T16:49:37.002Z,73.73
2019-01-04T16:52:06.620Z,72.73
2019-01-04T16:54:35.990Z,73.43
2019-01-04T16:57:05.332Z,73.32
2019-01-04T16:59:34.679Z,73.19
2019-01-04T17:02:04.227Z,72.83
2019-01-04T17:04:33.611Z,72.41
2019-01-04T17:07:03.896Z,72.29
2019-01-04T17:09:42.582Z,71.31
2019-01-04T17:12:18.375Z,71.29
2019-01-04T17:14:48.198Z,71.49
2019-01-04T17:17:17.509Z,71.75
2019-01-04T17:19:46.888Z,72.03
2019-01-04T17:22:16.269Z,72.40
2019-01-04T17:24:45.598Z,72.88
2019-01-04T17:27:14.954Z,73.01
2019-01-04T17:29:48.123Z,73.20
2019-01-04T17:32:17.430Z,73.74
2019-01-04T17:34:46.949Z,74.13
2019-01-04T17:37:16.401Z,74.26
2019-01-04T17:39:45.724Z,74.12
2019-01-04T17:42:15.072Z,73.79
2019-01-04T17:44:44.435Z,74.11
2019-01-04T17:47:13.817Z,73.98
2019-01-04T17:49:43.178Z,73.94
2019-01-04T17:52:12.554Z,74.17
2019-01-04T17:54:41.941Z,73.74
2019-01-04T17:57:11.291Z,73.82
2019-01-04T17:59:40.610Z,73.93
2019-01-04T18:02:09.981Z,73.80
2019-01-04T18:04:39.291Z,73.63
2019-01-04T18:07:08.651Z,73.64
2019-01-04T18:09:38.003Z,74.23
2019-01-04T18:12:07.385Z,74.55
2019-01-04T18:14:36.738Z,74.67
2019-01-04T18:17:06.420Z,74.58
2019-01-04T18:19:35.840Z,74.72
2019-01-04T18:22:05.194Z,74.66
2019-01-04T18:24:34.606Z,73.54
2019-01-04T18:27:05.895Z,72.96
2019-01-04T18:29:39.865Z,72.49
2019-01-04T18:32:09.613Z,71.57
2019-01-04T18:34:38.968Z,70.72
2019-01-04T18:37:08.361Z,69.48
2019-01-04T18:39:37.681Z,69.97
2019-01-04T18:42:07.045Z,70.32
2019-01-04T18:44:36.373Z,69.35
2019-01-04T18:47:05.809Z,69.10
2019-01-04T18:49:35.185Z,69.49
2019-01-04T18:52:04.653Z,69.69
2019-01-04T18:54:34.083Z,69.93
2019-01-04T18:57:03.443Z,69.97
2019-01-04T18:59:32.792Z,69.95
2019-01-04T19:02:02.145Z,69.60
2019-01-04T19:04:37.030Z,68.25
2019-01-04T19:07:02.654Z,68.23
2019-01-04T19:09:32.007Z,68.04
2019-01-04T19:12:01.438Z,68.66
2019-01-04T19:14:30.799Z,68.56
2019-01-04T19:17:00.146Z,68.82
2019-01-04T19:19:29.532Z,70.21
2019-01-04T19:21:59.135Z,70.76
2019-01-04T19:24:28.519Z,71.36
2019-01-04T19:26:58.281Z,70.85
2019-01-04T19:29:27.879Z,69.85
2019-01-04T19:31:57.194Z,69.80
2019-01-04T19:34:26.519Z,69.97
2019-01-04T19:36:55.908Z,70.00
2019-01-04T19:39:25.264Z,70.24
2019-01-04T19:41:54.607Z,71.11
2019-01-04T19:44:23.945Z,71.08
2019-01-04T19:46:53.257Z,70.83
2019-01-04T19:49:22.718Z,70.50
2019-01-04T19:51:52.333Z,70.35
2019-01-04T19:54:21.971Z,69.82
2019-01-04T19:56:51.314Z,69.60
2019-01-04T19:59:20.683Z,70.32
2019-01-04T20:01:50.044Z,70.12
2019-01-04T20:04:19.494Z,70.12
2019-01-04T20:08:01.209Z,69.37
2019-01-04T20:11:37.273Z,68.27
2019-01-04T20:15:04.298Z,67.96
2019-01-04T20:18:02.031Z,67.51
2019-01-04T20:20:50.442Z,67.58
2019-01-04T20:23:44.906Z,67.97
2019-01-04T20:26:31.834Z,67.92
2019-01-04T20:29:19.647Z,67.54
2019-01-04T20:32:23.301Z,67.81
2019-01-04T20:35:10.176Z,68.29
2019-01-04T20:38:12.469Z,68.01
2019-01-04T20:40:59.305Z,66.43
2019-01-04T20:43:56.651Z,66.93
2019-01-04T20:46:44.992Z,65.73
2019-01-04T20:49:31.906Z,65.15
2019-01-04T20:52:38.489Z,64.68
2019-01-04T20:55:42.136Z,64.26
2019-01-04T20:58:30.461Z,72.41
2019-01-04T21:01:30.843Z,71.87
2019-01-04T21:04:14.831Z,74.21
2019-01-04T21:07:06.218Z,74.49
2019-01-04T21:10:13.058Z,76.07
2019-01-04T21:13:10.545Z,76.38
2019-01-04T21:15:57.331Z,77.93
2019-01-04T21:18:49.067Z,76.97
2019-01-04T21:21:46.648Z,77.62
2019-01-04T21:24:44.180Z,79.41
2019-01-04T21:27:38.570Z,79.86
2019-01-04T21:30:28.011Z,79.93
2019-01-04T21:33:19.310Z,79.71
2019-01-04T21:36:13.200Z,79.75
2019-01-04T21:39:04.548Z,80.21
2019-01-04T21:42:08.168Z,80.00
2019-01-04T21:45:14.691Z,80.36
2019-01-04T21:48:21.359Z,80.38
2019-01-04T21:51:08.260Z,81.02
2019-01-04T21:54:02.255Z,80.88
2019-01-04T21:56:49.839Z,80.45
2019-01-04T21:59:36.711Z,80.53
2019-01-04T22:02:27.221Z,80.62
2019-01-04T22:05:14.463Z,80.22
2019-01-04T22:08:02.795Z,80.44
2019-01-04T22:11:09.182Z,80.40
2019-01-04T22:14:06.613Z,80.19
2019-01-04T22:16:55.245Z,80.13
2019-01-04T22:19:43.853Z,80.10
2019-01-04T22:22:32.120Z,79.87
2019-01-04T22:25:19.020Z,80.46
2019-01-04T22:28:07.268Z,79.74
2019-01-04T22:30:54.318Z,79.59
2019-01-04T22:33:58.003Z,79.92
2019-01-04T22:36:45.210Z,79.84
2019-01-04T22:39:42.485Z,79.14
2019-01-04T22:42:29.491Z,79.58
2019-01-04T22:45:30.088Z,79.26
2019-01-04T22:48:16.992Z,78.79
2019-01-04T22:51:11.345Z,79.18
2019-01-04T22:54:08.547Z,79.31
2019-01-04T22:56:59.723Z,79.15
2019-01-04T22:59:46.818Z,79.33
2019-01-04T23:02:44.229Z,79.59
2019-01-04T23:05:28.606Z,79.01
2019-01-04T23:08:15.502Z,79.09
2019-01-04T23:11:22.372Z,79.62
2019-01-04T23:14:09.222Z,79.28
2019-01-04T23:16:56.136Z,79.52
2019-01-04T23:19:53.273Z,79.09
2019-01-04T23:22:58.463Z,78.23
2019-01-04T23:25:59.092Z,78.87
2019-01-04T23:28:46.364Z,78.74
2019-01-04T23:31:34.646Z,78.26
2019-01-04T23:34:35.049Z,77.72
2019-01-04T23:37:22.198Z,78.16
2019-01-04T23:40:16.499Z,74.04
2019-01-04T23:43:04.028Z,74.17
2019-01-04T23:46:01.951Z,74.09
2019-01-04T23:48:59.335Z,72.92
2019-01-04T23:51:56.766Z,71.42
2019-01-04T23:54:43.651Z,71.57
2019-01-04T23:57:44.250Z,70.73
